Archival Weather

Vermilion Rgnl

Danville, Illinois (KDNV)

Report from: Tuesday, March 26, 2024 1:15 PM CDT
Current time: Sunday, July 14, 2024 5:04 AM CDT

Current weather – Weather history – Daily summaries
Weather forecast

Temperature7.1°C (44.8°F)
Wind chill1.9°C (35.3°F)
Dew point2.5°C (36.5°F)
Winds 24 kts (12.3 m/s, 27.6 mph) West-Southwest (240°)
Wind gusts 29 kts (14.9 m/s, 33.4 mph)
Visibility10 mi. (16.1 km)
Clouds Ceiling: Broken clouds 2,300 ft. (701 m)
Overcast 3,800 ft. (1,158 m)
Altimeter29.62 in.Hg (1003 mB)
Relative humidity73 %
Density altitude-493 ft. (-150 m)
Remarks Fully automated report
Automated weather observing station with precipitation discriminator
Flight conditions Marginal Visual Meteorological Conditions
Raw dataKDNV 261815Z AUTO 24024G29KT 10SM BKN023 OVC038 07/03 A2962 RMK AO2 T00710025
An error has occurred. This application may no longer respond until reloaded. Reload 🗙